Alliance, Nebraska
Current Conditions -  °F | °C
As of 4:37 AM on Thursday 18 Dec 2014 (Local Time) from KAIA Reporting Station
Haze Haze  
Wind Chill: -7°   Ceiling: 100
Heat Index:   Visibility: 1.2mi
Dew Point:   Wind: 6mph
Humidity: 84%   Direction: 270°W
Pressure: 29.99"   Gusts: NA
Location:  42.1°N, 102.87°W
Report Text: KAIA 181137Z AUTO 27005KT 1 1/4SM BR OVC001 M16/M18 A2999 RMK AO2 I1001 T11561178
Loading
Personal Weather Stations






























Interactive Weather Map New forecast layout! Learn more

10-Day Weather Forecast

Advertisements
Track Severe Weather on mobile